地図

経路データ

SID SEASON NUMBER BASIN SUBBASIN NAME ISO_TIME NATURE LAT LON WMO_WIND WMO_PRES WMO_AGENCY TRACK_TYPE DIST2LAND LANDFALL IFLAG USA_AGENCY USA_ATCF_ID USA_LAT USA_LON USA_RECORD USA_STATUS USA_WIND USA_PRES USA_SSHS USA_R34_NE USA_R34_SE USA_R34_SW USA_R34_NW USA_R50_NE USA_R50_SE USA_R50_SW USA_R50_NW USA_R64_NE USA_R64_SE USA_R64_SW USA_R64_NW USA_POCI USA_ROCI USA_RMW USA_EYE TOKYO_LAT TOKYO_LON TOKYO_GRADE TOKYO_WIND TOKYO_PRES TOKYO_R50_DIR TOKYO_R50_LONG TOKYO_R50_SHORT TOKYO_R30_DIR TOKYO_R30_LONG TOKYO_R30_SHORT TOKYO_LAND CMA_LAT CMA_LON CMA_CAT CMA_WIND CMA_PRES HKO_LAT HKO_LON HKO_CAT HKO_WIND HKO_PRES NEWDELHI_LAT NEWDELHI_LON NEWDELHI_GRADE NEWDELHI_WIND NEWDELHI_PRES NEWDELHI_CI NEWDELHI_DP NEWDELHI_POCI REUNION_LAT REUNION_LON REUNION_TYPE REUNION_WIND REUNION_PRES REUNION_TNUM REUNION_CI REUNION_RMW REUNION_R34_NE REUNION_R34_SE REUNION_R34_SW REUNION_R34_NW REUNION_R50_NE REUNION_R50_SE REUNION_R50_SW REUNION_R50_NW REUNION_R64_NE REUNION_R64_SE REUNION_R64_SW REUNION_R64_NW BOM_LAT BOM_LON BOM_TYPE BOM_WIND BOM_PRES BOM_TNUM BOM_CI BOM_RMW BOM_R34_NE BOM_R34_SE BOM_R34_SW BOM_R34_NW BOM_R50_NE BOM_R50_SE BOM_R50_SW BOM_R50_NW BOM_R64_NE BOM_R64_SE BOM_R64_SW BOM_R64_NW BOM_ROCI BOM_POCI BOM_EYE BOM_POS_METHOD BOM_PRES_METHOD NADI_LAT NADI_LON NADI_CAT NADI_WIND NADI_PRES WELLINGTON_LAT WELLINGTON_LON WELLINGTON_WIND WELLINGTON_PRES DS824_LAT DS824_LON DS824_STAGE DS824_WIND DS824_PRES TD9636_LAT TD9636_LON TD9636_STAGE TD9636_WIND TD9636_PRES TD9635_LAT TD9635_LON TD9635_WIND TD9635_PRES TD9635_ROCI NEUMANN_LAT NEUMANN_LON NEUMANN_CLASS NEUMANN_WIND NEUMANN_PRES MLC_LAT MLC_LON MLC_CLASS MLC_WIND MLC_PRES USA_GUST BOM_GUST BOM_GUST_PER REUNION_GUST REUNION_GUST_PER USA_SEAHGT USA_SEARAD_NE USA_SEARAD_SE USA_SEARAD_SW USA_SEARAD_NW STORM_SPEED STORM_DIR
1893226N10310 1893 29 NA NA NOT_NAMED 1893-08-13 12:00:00 TS 9.60000 -50.5000 35 hurdat_atl main 544 539 O____________O hurdat_atl AL031893 9.60000 -50.5000 TS 35 0 9.60000 -50.5000 TS 35 12 307
1893226N10310 1893 29 NA NA NOT_NAMED 1893-08-13 15:00:00 TS 9.96262 -50.9898 main 562 558 P____________P AL031893 9.96262 -50.9898 TS 37 0 9.96262 -50.9898 TS 37 12 305
1893226N10310 1893 29 NA NA NOT_NAMED 1893-08-13 18:00:00 TS 10.3000 -51.5000 40 hurdat_atl main 574 569 O____________O hurdat_atl AL031893 10.3000 -51.5000 TS 40 0 10.3000 -51.5000 TS 40 12 302
1893226N10310 1893 29 NA NA NOT_NAMED 1893-08-13 21:00:00 TS 10.5999 -52.0427 main 579 575 P____________P AL031893 10.5999 -52.0427 TS 40 0 10.5999 -52.0427 TS 40 12 299
1893226N10310 1893 29 NA NA NOT_NAMED 1893-08-14 00:00:00 TS 10.9000 -52.6000 40 hurdat_atl main 587 583 O____________O hurdat_atl AL031893 10.9000 -52.6000 TS 40 0 10.9000 -52.6000 TS 40 13 301
1893226N10310 1893 29 NA NA NOT_NAMED 1893-08-14 03:00:00 TS 11.2499 -53.1500 main 603 603 P____________P AL031893 11.2499 -53.1500 TS 42 0 11.2499 -53.1500 TS 42 13 303
1893226N10310 1893 29 NA NA NOT_NAMED 1893-08-14 06:00:00 TS 11.6000 -53.7000 45 hurdat_atl main 640 640 O____________O hurdat_atl AL031893 11.6000 -53.7000 TS 45 0 11.6000 -53.7000 TS 45 13 301
1893226N10310 1893 29 NA NA NOT_NAMED 1893-08-14 09:00:00 TS 11.8998 -54.2427 main 672 657 P____________P AL031893 11.8998 -54.2427 TS 47 0 11.8998 -54.2427 TS 47 12 299
1893226N10310 1893 29 NA NA NOT_NAMED 1893-08-14 12:00:00 TS 12.2000 -54.8000 50 hurdat_atl main 657 639 O____________O hurdat_atl AL031893 12.2000 -54.8000 TS 50 0 12.2000 -54.8000 TS 50 13 300
1893226N10310 1893 29 NA NA NOT_NAMED 1893-08-14 15:00:00 TS 12.5499 -55.3851 main 639 597 P____________P AL031893 12.5499 -55.3851 TS 52 0 12.5499 -55.3851 TS 52 14 301
1893226N10310 1893 29 NA NA NOT_NAMED 1893-08-14 18:00:00 TS 12.9000 -56.0000 55 hurdat_atl main 597 554 O____________O hurdat_atl AL031893 12.9000 -56.0000 TS 55 0 12.9000 -56.0000 TS 55 14 298
1893226N10310 1893 29 NA NA NOT_NAMED 1893-08-14 21:00:00 TS 13.1999 -56.6502 main 545 510 P____________P AL031893 13.1999 -56.6502 TS 57 0 13.1999 -56.6502 TS 57 14 295
1893226N10310 1893 29 NA NA NOT_NAMED 1893-08-15 00:00:00 TS 13.5000 -57.3000 60 hurdat_atl main 510 483 O____________O hurdat_atl AL031893 13.5000 -57.3000 TS 60 0 13.5000 -57.3000 TS 60 14 298
1893226N10310 1893 29 NA NA NOT_NAMED 1893-08-15 03:00:00 TS 13.8498 -57.9076 main 483 474 P____________P AL031893 13.8498 -57.9076 TS 62 0 13.8498 -57.9076 TS 60 14 301
1893226N10310 1893 29 NA NA NOT_NAMED 1893-08-15 06:00:00 TS 14.2000 -58.5000 65 hurdat_atl main 476 467 O____________O hurdat_atl AL031893 14.2000 -58.5000 HU 65 1 14.2000 -58.5000 TS 60 13 299
1893226N10310 1893 29 NA NA NOT_NAMED 1893-08-15 09:00:00 TS 14.5074 -59.1077 main 472 468 P____________P AL031893 14.5074 -59.1077 HU 65 1 14.5074 -59.1077 TS 62 13 297
1893226N10310 1893 29 NA NA NOT_NAMED 1893-08-15 12:00:00 TS 14.8000 -59.7000 65 hurdat_atl main 480 477 O____________O hurdat_atl AL031893 14.8000 -59.7000 HU 65 1 14.8000 -59.7000 HU 65 13 298
1893226N10310 1893 29 NA CS NOT_NAMED 1893-08-15 15:00:00 TS 15.0999 -60.2651 main 498 496 P____________P AL031893 15.0999 -60.2651 HU 67 1 15.0999 -60.2651 HU 65 12 299
1893226N10310 1893 29 NA CS NOT_NAMED 1893-08-15 18:00:00 TS 15.4000 -60.8000 70 hurdat_atl main 526 526 O____________O hurdat_atl AL031893 15.4000 -60.8000 HU 70 1 15.4000 -60.8000 HU 65 12 301
1893226N10310 1893 29 NA CS NOT_NAMED 1893-08-15 21:00:00 TS 15.6998 -61.3002 main 536 473 P____________P AL031893 15.6998 -61.3002 HU 72 1 15.6998 -61.3002 HU 65 11 302
1893226N10310 1893 29 NA CS NOT_NAMED 1893-08-16 00:00:00 TS 16.0000 -61.8000 75 hurdat_atl main 473 409 O____________O hurdat_atl AL031893 16.0000 -61.8000 HU 75 1 16.0000 -61.8000 HU 65 12 301
1893226N10310 1893 29 NA CS NOT_NAMED 1893-08-16 03:00:00 TS 16.3025 -62.3501 main 400 337 P____________P AL031893 16.3000 -62.3501 HU 77 1 16.3075 -62.3500 HU 72 12 300
1893226N10310 1893 29 NA CS NOT_NAMED 1893-08-16 06:00:00 TS 16.6000 -62.9000 80 hurdat_atl main 337 274 O____________O hurdat_atl AL031893 16.6000 -62.9000 HU 80 1 16.6000 -62.9000 HU 80 12 300
1893226N10310 1893 29 NA CS NOT_NAMED 1893-08-16 09:00:00 TS 16.8982 -63.4151 main 274 212 P____________P AL031893 16.9148 -63.4076 HU 85 2 16.8650 -63.4301 HU 85 11 301
1893226N10310 1893 29 NA CS NOT_NAMED 1893-08-16 12:00:00 TS 17.1667 -63.9000 90 hurdat_atl main 212 164 O____________O hurdat_atl AL031893 17.2000 -63.9000 HU 90 2 17.1000 -63.9000 HU 90 10 298
1893226N10310 1893 29 NA CS NOT_NAMED 1893-08-16 15:00:00 TS 17.3815 -64.3577 main 155 108 P____________P AL031893 17.4149 -64.4002 HU 95 2 17.3148 -64.2727 HU 95 9 295
1893226N10310 1893 29 NA CS NOT_NAMED 1893-08-16 18:00:00 TS 17.5667 -64.8000 100 hurdat_atl main 108 70 O____________O hurdat_atl AL031893 17.6000 -64.9000 HU 100 3 17.5000 -64.6000 MH 100 9 293
1893226N10310 1893 29 NA CS NOT_NAMED 1893-08-16 21:00:00 TS 17.7323 -65.2328 main 70 15 P____________P AL031893 17.7923 -65.3927 HU 100 3 17.6122 -64.9131 MH 100 9 293
1893226N10310 1893 29 NA CS NOT_NAMED 1893-08-17 00:00:00 TS 17.9333 -65.7000 100 hurdat_atl main 15 0 O____________O hurdat_atl AL031893 18.0000 -65.9000 HU 100 3 17.8000 -65.3000 MH 100 11 297
1893226N10310 1893 29 NA NA NOT_NAMED 1893-08-17 03:00:00 TS 18.2300 -66.2566 main 0 0 P____________P AL031893 18.2425 -66.4500 HU 95 2 18.2052 -65.8697 MH 95 13 300
1893226N10310 1893 29 NA NA NOT_NAMED 1893-08-17 06:00:00 TS 18.5667 -66.8333 90 hurdat_atl main 22 22 O____________O hurdat_atl AL031893 18.5000 -67.0000 HU 90 2 18.7000 -66.5000 HU 90 12 302
1893226N10310 1893 29 NA NA NOT_NAMED 1893-08-17 09:00:00 TS 18.8832 -67.3726 main 56 56 P____________P AL031893 18.7424 -67.5152 HU 92 2 19.1650 -67.0875 HU 92 12 303
1893226N10310 1893 29 NA NA NOT_NAMED 1893-08-17 12:00:00 TS 19.2000 -67.8667 95 hurdat_atl main 79 76 O____________O hurdat_atl AL031893 19.0000 -68.0000 HU 95 2 19.6000 -67.6000 HU 95 11 306
1893226N10310 1893 29 NA NA NOT_NAMED 1893-08-17 15:00:00 TS 19.5165 -68.3060 main 84 84 P____________P AL031893 19.2924 -68.4651 HU 97 3 19.9648 -67.9879 HU 95 10 309
1893226N10310 1893 29 NA NA NOT_NAMED 1893-08-17 18:00:00 TS 19.8333 -68.7000 100 hurdat_atl main 84 84 O____________O hurdat_atl AL031893 19.6000 -68.9000 HU 100 3 20.3000 -68.3000 HU 95 10 311
1893226N10310 1893 29 NA NA NOT_NAMED 1893-08-17 21:00:00 TS 20.1449 -69.0818 main 91 91 P____________P AL031893 19.8924 -69.3152 HU 100 3 20.6499 -68.6151 HU 95 9 313
1893226N10310 1893 29 NA NA NOT_NAMED 1893-08-18 00:00:00 TS 20.4667 -69.4333 100 hurdat_atl main 118 113 O____________O hurdat_atl AL031893 20.2000 -69.7000 HU 100 3 21.0000 -68.9000 HU 95 9 316
1893226N10310 1893 29 NA NA NOT_NAMED 1893-08-18 03:00:00 TS 20.8040 -69.7528 main 135 135 P____________P AL031893 20.5273 -70.0503 HU 102 3 21.3574 -69.1576 HU 95 9 320
1893226N10310 1893 29 NA NA NOT_NAMED 1893-08-18 06:00:00 TS 21.1667 -70.0667 105 hurdat_atl main 165 165 O____________O hurdat_atl AL031893 20.9000 -70.4000 HU 105 3 21.7000 -69.4000 HU 95 10 321
1893226N10310 1893 29 NA NA NOT_NAMED 1893-08-18 09:00:00 TS 21.5666 -70.4067 main 202 201 P____________P AL031893 21.3499 -70.7850 HU 105 3 22.0000 -69.6502 HU 97 10 321
1893226N10310 1893 29 NA NA NOT_NAMED 1893-08-18 12:00:00 TS 21.9667 -70.7667 105 hurdat_atl main 244 225 O____________O hurdat_atl AL031893 21.8000 -71.2000 HU 105 3 22.3000 -69.9000 MH 100 10 318
1893226N10310 1893 29 NA NA NOT_NAMED 1893-08-18 15:00:00 TS 22.3242 -71.1527 main 222 219 P____________P AL031893 22.1650 -71.6502 HU 105 3 22.6425 -70.1575 MH 100 10 315
1893226N10310 1893 29 NA NA NOT_NAMED 1893-08-18 18:00:00 TS 22.6667 -71.5333 105 hurdat_atl main 228 221 O____________O hurdat_atl AL031893 22.5000 -72.1000 HU 105 3 23.0000 -70.4000 MH 100 10 316
1893226N10310 1893 29 NA NA NOT_NAMED 1893-08-18 21:00:00 TS 23.0115 -71.8695 main 230 230 P____________P AL031893 22.8423 -72.5004 HU 105 3 23.3499 -70.6077 MH 100 9 319
1893226N10310 1893 29 NA NA NOT_NAMED 1893-08-19 00:00:00 TS 23.3667 -72.2000 105 hurdat_atl main 259 256 O____________O hurdat_atl AL031893 23.2000 -72.9000 HU 105 3 23.7000 -70.8000 MH 100 10 319
1893226N10310 1893 29 NA NA NOT_NAMED 1893-08-19 03:00:00 TS 23.7475 -72.5667 main 282 282 P____________P AL031893 23.5924 -73.3426 HU 105 3 24.0575 -71.0150 MH 102 10 319
1893226N10310 1893 29 NA NA NOT_NAMED 1893-08-19 06:00:00 TS 24.1333 -72.9333 105 hurdat_atl main 324 324 O____________O hurdat_atl AL031893 24.0000 -73.8000 HU 105 3 24.4000 -71.2000 MH 105 10 318
1893226N10310 1893 29 NA NA NOT_NAMED 1893-08-19 09:00:00 TS 24.4750 -73.2745 main 369 369 P____________P AL031893 24.3925 -74.2652 HU 105 3 24.6399 -71.2932 MH 105 10 320
1893226N10310 1893 29 NA NA NOT_NAMED 1893-08-19 12:00:00 TS 24.8667 -73.6000 105 hurdat_atl main 415 393 O____________O hurdat_atl AL031893 24.8000 -74.7000 HU 105 3 25.0000 -71.4000 MH 105 11 326
1893226N10310 1893 29 NA NA NOT_NAMED 1893-08-19 15:00:00 TS 25.3842 -73.9391 main 395 380 P____________P AL031893 25.2350 -75.0950 HU 105 3 25.6826 -71.6272 MH 105 12 333
1893226N10310 1893 29 NA NA NOT_NAMED 1893-08-19 18:00:00 TS 25.9667 -74.2333 105 hurdat_atl main 389 379 O____________O hurdat_atl AL031893 25.7000 -75.4000 HU 105 3 26.5000 -71.9000 MH 105 12 338
1893226N10310 1893 29 NA NA NOT_NAMED 1893-08-19 21:00:00 TS 26.5349 -74.4543 main 383 383 P____________P AL031893 26.1774 -75.5953 HU 105 3 27.2500 -72.1724 MH 105 12 344
1893226N10310 1893 29 NA NA NOT_NAMED 1893-08-20 00:00:00 TS 27.1333 -74.6000 105 hurdat_atl main 406 406 O____________O hurdat_atl AL031893 26.7000 -75.7000 HU 105 3 28.0000 -72.4000 MH 105 13 350
1893226N10310 1893 29 NA NA NOT_NAMED 1893-08-20 03:00:00 TS 27.7733 -74.7018 main 445 445 P____________P AL031893 27.2850 -75.7947 HU 105 3 28.7499 -72.5158 MH 105 13 355
1893226N10310 1893 29 NA NA NOT_NAMED 1893-08-20 06:00:00 TS 28.4333 -74.7333 105 hurdat_atl main 492 492 O____________O hurdat_atl AL031893 27.9000 -75.8000 HU 105 3 29.5000 -72.6000 MH 105 958 13 360
1893226N10310 1893 29 NA NA NOT_NAMED 1893-08-20 09:00:00 TS 29.0583 -74.7180 main 553 553 P____________P AL031893 28.4625 -75.6948 HU 102 3 30.2501 -72.7645 MH 102 13 4
1893226N10310 1893 29 NA NA NOT_NAMED 1893-08-20 12:00:00 TS 29.7333 -74.6333 100 hurdat_atl main 567 501 O____________O hurdat_atl AL031893 29.1000 -75.5000 HU 100 3 31.0000 -72.9000 MH 100 15 7
1893226N10310 1893 29 NA NA NOT_NAMED 1893-08-20 15:00:00 TS 30.5147 -74.5232 main 501 430 P____________P AL031893 29.8971 -75.3160 HU 97 3 31.7500 -72.9377 MH 97 17 10
1893226N10310 1893 29 NA NA NOT_NAMED 1893-08-20 18:00:00 TS 31.3667 -74.3000 95 hurdat_atl main 421 362 O____________O hurdat_atl AL031893 30.8000 -75.0000 HU 95 2 32.5000 -72.9000 HU 95 18 16
1893226N10310 1893 29 NA NA NOT_NAMED 1893-08-20 21:00:00 TS 32.2300 -73.9286 main 368 326 P____________P AL031893 31.7200 -74.4743 HU 92 2 33.2499 -72.8371 HU 92 19 23
1893226N10310 1893 29 NA NA NOT_NAMED 1893-08-21 00:00:00 TS 33.1333 -73.4333 90 hurdat_atl main 333 303 O____________O hurdat_atl AL031893 32.7000 -73.8000 HU 90 2 34.0000 -72.7000 HU 90 20 25
1893226N10310 1893 29 NA NA NOT_NAMED 1893-08-21 03:00:00 TS 34.0681 -72.8888 main 302 294 P____________P AL031893 33.7272 -73.0859 HU 90 2 34.7499 -72.4945 HU 90 21 27
1893226N10310 1893 29 NA NA NOT_NAMED 1893-08-21 06:00:00 TS 35.0333 -72.2667 90 hurdat_atl main 302 302 O____________O hurdat_atl AL031893 34.8000 -72.3000 HU 90 2 35.5000 -72.2000 HU 90 22 28
1893226N10310 1893 29 NA NA NOT_NAMED 1893-08-21 09:00:00 TS 36.0086 -71.6093 main 351 351 P____________P AL031893 35.8693 -71.4841 HU 90 2 36.2871 -71.8596 HU 90 23 30
1893226N10310 1893 29 NA NA NOT_NAMED 1893-08-21 12:00:00 TS 37.0000 -70.8667 90 hurdat_atl main 396 387 O____________O hurdat_atl AL031893 37.0000 -70.6000 HU 90 2 37.0000 -71.4000 HU 90 23 32
1893226N10310 1893 29 NA NA NOT_NAMED 1893-08-21 15:00:00 TS 37.9354 -70.0810 main 387 315 P____________P AL031893 38.2117 -69.6414 HU 85 2 37.3828 -70.9603 HU 85 24 35
1893226N10310 1893 29 NA NA NOT_NAMED 1893-08-21 18:00:00 TS 39.0000 -69.1000 80 hurdat_atl main 309 234 O____________O hurdat_atl AL031893 39.5000 -68.6000 HU 80 1 38.0000 -70.1000 HU 80 30 37
1893226N10310 1893 29 NA NA NOT_NAMED 1893-08-21 21:00:00 TS 40.3388 -67.7830 main 241 208 P____________P AL031893 40.8416 -67.4843 HU 75 1 39.3331 -68.3804 HU 75 35 37
1893226N10310 1893 29 NA NA NOT_NAMED 1893-08-22 00:00:00 TS 41.8000 -66.3000 70 hurdat_atl main 195 47 O____________O hurdat_atl AL031893 42.2000 -66.3000 HU 70 1 41.0000 -66.3000 HU 70 36 36
1893226N10310 1893 29 NA NA NOT_NAMED 1893-08-22 03:00:00 TS 43.2123 -64.9311 main 46 0 P____________P AL031893 43.5021 -65.1718 HU 65 1 42.6328 -64.4497 HU 65 35 36
1893226N10310 1893 29 NA NA NOT_NAMED 1893-08-22 06:00:00 MX 44.6333 -63.4333 60 hurdat_atl main 0 0 O____________O hurdat_atl AL031893 44.8000 -63.8000 EX 60 -4 44.3000 -62.7000 TS 60 37 39
1893226N10310 1893 29 NA NA NOT_NAMED 1893-08-22 09:00:00 MX 46.1132 -61.6034 main 7 0 P____________P AL031893 46.1459 -61.8945 EX 55 -4 46.0477 -61.0212 TS 55 38 43
1893226N10310 1893 29 NA NA NOT_NAMED 1893-08-22 12:00:00 MX 47.4333 -59.6333 50 hurdat_atl main 31 0 O____________O hurdat_atl AL031893 47.4000 -59.7000 EX 50 -4 47.5000 -59.5000 TS 50 35 49
1893226N10310 1893 29 NA NA NOT_NAMED 1893-08-22 15:00:00 MX 48.4320 -57.6623 main 0 0 P____________P AL031893 48.4999 -57.4029 EX 50 -4 48.2962 -58.1812 TS 50 31 55
1893226N10310 1893 29 NA NA NOT_NAMED 1893-08-22 18:00:00 ET 49.2000 -55.8667 50 hurdat_atl main 0 0 O____________O hurdat_atl AL031893 49.4000 -55.3000 EX 50 -4 48.8000 -57.0000 EX 50 25 56
1893226N10310 1893 29 NA NA NOT_NAMED 1893-08-22 21:00:00 ET 49.8667 -54.4560 main 44 44 P____________P AL031893 50.1483 -53.7484 EX 50 -4 49.3034 -55.8713 EX 50 21 54
1893226N10310 1893 29 NA NA NOT_NAMED 1893-08-23 00:00:00 ET 50.4667 -53.1667 50 hurdat_atl main 129 129 O____________O hurdat_atl AL031893 50.7000 -52.5000 EX 50 -4 50.0000 -54.5000 EX 50 23 55
1893226N10310 1893 29 NA NA NOT_NAMED 1893-08-23 03:00:00 ET 51.1786 -51.5622 main 250 250 P____________P AL031893 51.0739 -51.1858 EX 50 -4 51.3880 -52.3151 EX 50 23 58
1893226N10310 1893 29 NA NA NOT_NAMED 1893-08-23 06:00:00 ET 51.7000 -50.0333 50 hurdat_atl main 362 362 O____________O hurdat_atl AL031893 51.3000 -50.0000 EX 50 -4 52.5000 -50.1000 EX 50 17 67
1893226N10310 1893 29 NA NA NOT_NAMED 1893-08-23 09:00:00 ET 51.8489 -48.9704 main 420 420 P____________P AL031893 51.5285 -49.0317 EX 50 -4 52.4897 -48.8477 EX 50 13 88
1893226N10310 1893 29 NA NA NOT_NAMED 1893-08-23 12:00:00 ET 51.7333 -48.0000 50 hurdat_atl main 469 469 O____________O hurdat_atl AL031893 51.6000 -48.0000 EX 50 -4 52.0000 -48.0000 EX 50 14 104
1893226N10310 1893 29 NA NA NOT_NAMED 1893-08-23 15:00:00 ET 51.4897 -46.6948 main 537 537 P____________P AL031893 51.4276 -46.5459 EX 50 -4 51.6139 -46.9924 EX 50 17 110
1893226N10310 1893 29 NA NA NOT_NAMED 1893-08-23 18:00:00 ET 51.1333 -45.4000 50 hurdat_atl main 607 607 O____________O hurdat_atl AL031893 51.1000 -45.1000 EX 50 -4 51.2000 -46.0000 EX 50 16 115
1893226N10310 1893 29 NA NA NOT_NAMED 1893-08-23 21:00:00 ET 50.7969 -44.3215 main 673 673 P____________P AL031893 50.7708 -43.9811 EX 50 -4 50.8491 -45.0025 EX 50 14 119
1893226N10310 1893 29 NA NA NOT_NAMED 1893-08-24 00:00:00 ET 50.4333 -43.4000 50 hurdat_atl main 721 721 O____________O hurdat_atl AL031893 50.4000 -43.1000 EX 50 -4 50.5000 -44.0000 EX 50 13 126
1893226N10310 1893 29 NA NA NOT_NAMED 1893-08-24 03:00:00 ET 50.0217 -42.6248 main 768 768 P____________P AL031893 49.9829 -42.4368 EX 50 -4 50.0991 -43.0007 EX 50 13 129
1893226N10310 1893 29 NA NA NOT_NAMED 1893-08-24 06:00:00 ET 49.6333 -41.8667 50 hurdat_atl main 810 810 O____________O hurdat_atl AL031893 49.6000 -41.8000 EX 50 -4 49.7000 -42.0000 EX 50 13 124
1893226N10310 1893 29 NA NA NOT_NAMED 1893-08-24 09:00:00 ET 49.2782 -40.9142 main 878 878 P____________P AL031893 49.2834 -40.8988 EX 50 -4 49.2679 -40.9450 EX 50 13 115
1893226N10310 1893 29 NA NA NOT_NAMED 1893-08-24 12:00:00 ET 49.0667 -40.0000 50 hurdat_atl main 942 942 O____________O hurdat_atl AL031893 49.1000 -40.0000 EX 50 -4 49.0000 -40.0000 EX 50 11 100
1893226N10310 1893 29 NA NA NOT_NAMED 1893-08-24 15:00:00 ET 49.0911 -39.3223 main 993 993 P____________P AL031893 49.0960 -39.3366 EX 50 -4 49.0812 -39.2936 EX 50 9 79
1893226N10310 1893 29 NA NA NOT_NAMED 1893-08-24 18:00:00 ET 49.2333 -38.7000 50 hurdat_atl main 1036 1036 O____________O hurdat_atl AL031893 49.2000 -38.7000 EX 50 -4 49.3000 -38.7000 EX 50 9 75
1893226N10310 1893 29 NA NA NOT_NAMED 1893-08-24 21:00:00 ET 49.3235 -37.9564 main 1087 1087 P____________P AL031893 49.2856 -37.8851 EX 50 -4 49.3994 -38.0991 EX 50 10 78
1893226N10310 1893 29 NA NA NOT_NAMED 1893-08-25 00:00:00 ET 49.4333 -37.2333 50 hurdat_atl main 1145 1145 O____________O hurdat_atl AL031893 49.4000 -37.1000 EX 50 -4 49.5000 -37.5000 EX 50 9 74
1893226N10310 1893 29 NA NA NOT_NAMED 1893-08-25 03:00:00 ET 49.5778 -36.6199 main 1189 1189 P____________P AL031893 49.5417 -36.5047 EX 47 -4 49.6499 -36.8503 EX 47 8 68
1893226N10310 1893 29 NA NA NOT_NAMED 1893-08-25 06:00:00 ET 49.7333 -36.0667 45 hurdat_atl main 1225 1225 O____________O hurdat_atl AL031893 49.7000 -36.0000 EX 45 -4 49.8000 -36.2000 EX 45 8 69
1893226N10310 1893 29 NA NA NOT_NAMED 1893-08-25 09:00:00 ET 49.8438 -35.5270 main 1237 1226 P____________P AL031893 49.8271 -35.4988 EX 42 -4 49.8772 -35.5834 EX 42 7 69
1893226N10310 1893 29 NA NA NOT_NAMED 1893-08-25 12:00:00 ET 50.0000 -35.0000 40 hurdat_atl main 1229 1216 O____________O hurdat_atl AL031893 50.0000 -35.0000 EX 40 -4 50.0000 -35.0000 EX 40 8 58
1893226N10310 1893 29 NA NA NOT_NAMED 1893-08-25 15:00:00 ET 50.2664 -34.4581 main 1211 1195 P____________P AL031893 50.2707 -34.4647 EX 37 -4 50.2580 -34.4449 EX 37 9 50
1893226N10310 1893 29 NA NA NOT_NAMED 1893-08-25 18:00:00 ET 50.6000 -33.9000 35 hurdat_atl main 1198 O____________O hurdat_atl AL031893 50.6000 -33.9000 EX 35 -4 50.6000 -33.9000 EX 35 10 47

IBTrACS Databaseについて

本データベースは、米国NOAAが公開する1842年以降の世界の熱帯低気圧のベストトラックデータアーカイブInternational Best Track Archive for Climate Stewardship (IBTrACS)を、ウェブで閲覧しやすい形式に変換したものです。

最終更新日:2021-10-08